createdAt,value
2022-09-12T00:00:40.071Z,101721.28
2022-09-12T00:06:00.515Z,101717.13
2022-09-12T00:11:22.001Z,101720.75
2022-09-12T00:16:43.242Z,101710.53
2022-09-12T00:22:03.819Z,101723.50
2022-09-12T00:27:24.622Z,101725.34
2022-09-12T00:32:45.173Z,101719.50
2022-09-12T00:38:06.034Z,101710.94
2022-09-12T00:43:29.629Z,101708.41
2022-09-12T00:48:57.809Z,101710.16
2022-09-12T00:54:22.944Z,101702.44
2022-09-12T00:59:53.033Z,101692.03
2022-09-12T01:05:14.166Z,101686.59
2022-09-12T01:10:37.439Z,101687.19
2022-09-12T01:15:57.911Z,101685.34
2022-09-12T01:22:01.963Z,101679.34
2022-09-12T01:27:50.869Z,101674.19
2022-09-12T01:33:20.820Z,101673.59
2022-09-12T01:39:02.748Z,101666.84
2022-09-12T01:44:32.052Z,101672.91
2022-09-12T01:50:10.576Z,101670.22
2022-09-12T01:55:36.358Z,101665.31
2022-09-12T02:01:07.842Z,101662.81
2022-09-12T02:06:35.201Z,101659.25
2022-09-12T02:11:59.057Z,101642.00
2022-09-12T02:17:23.091Z,101625.63
2022-09-12T02:22:45.674Z,101623.81
2022-09-12T02:28:38.028Z,101623.84
2022-09-12T02:34:16.927Z,101618.75
2022-09-12T02:39:37.526Z,101623.16
2022-09-12T02:44:58.793Z,101635.13
2022-09-12T02:50:20.017Z,101616.31
2022-09-12T02:55:41.729Z,101616.31
2022-09-12T03:01:46.112Z,101606.81
2022-09-12T03:07:39.433Z,101604.09
2022-09-12T03:13:15.746Z,101600.06
2022-09-12T03:18:51.503Z,101593.19
2022-09-12T03:24:20.517Z,101575.19
2022-09-12T03:29:43.419Z,101583.66
2022-09-12T03:35:04.641Z,101587.25
2022-09-12T03:40:25.905Z,101571.84
2022-09-12T03:45:51.949Z,101565.78
2022-09-12T03:51:12.857Z,101559.53
2022-09-12T03:56:33.429Z,101565.28
2022-09-12T04:01:54.206Z,101558.16
2022-09-12T04:07:16.532Z,101557.91
2022-09-12T04:12:39.432Z,101571.25
2022-09-12T04:18:05.072Z,101559.84
2022-09-12T04:23:26.424Z,101561.25
2022-09-12T04:28:47.690Z,101544.78
2022-09-12T04:34:08.907Z,101548.13
2022-09-12T04:39:29.355Z,101548.03
2022-09-12T04:44:50.263Z,101550.47
2022-09-12T04:50:11.113Z,101547.88
2022-09-12T04:55:34.879Z,101552.97
2022-09-12T05:00:55.363Z,101550.28
2022-09-12T05:06:22.028Z,101544.06
2022-09-12T05:12:04.312Z,101540.41
2022-09-12T05:17:25.489Z,101540.06
2022-09-12T05:22:46.092Z,101539.78
2022-09-12T05:28:06.664Z,101535.97
2022-09-12T05:33:27.877Z,101525.25
2022-09-12T05:46:25.659Z,101529.84
2022-09-12T05:51:46.384Z,101538.78
2022-09-12T05:57:07.111Z,101548.59
2022-09-12T06:02:28.854Z,101540.50
2022-09-12T06:07:49.252Z,101547.81
2022-09-12T06:13:09.997Z,101540.28
2022-09-12T06:18:30.492Z,101546.69
2022-09-12T06:23:51.401Z,101547.06
2022-09-12T06:29:11.820Z,101546.78
2022-09-12T06:34:33.802Z,101533.56
2022-09-12T06:39:54.023Z,101536.13
2022-09-12T06:45:16.505Z,101529.69
2022-09-12T06:50:37.466Z,101523.28
2022-09-12T06:56:08.959Z,101520.22
2022-09-12T07:01:31.713Z,101522.59
2022-09-12T07:06:52.171Z,101522.22
2022-09-12T07:12:12.828Z,101531.69
2022-09-12T07:17:33.348Z,101530.66
2022-09-12T07:22:54.149Z,101531.47
2022-09-12T07:28:15.090Z,101523.16
2022-09-12T07:33:37.001Z,101513.31
2022-09-12T07:38:58.313Z,101505.63
2022-09-12T07:44:18.810Z,101506.00
2022-09-12T07:49:39.496Z,101513.88
2022-09-12T07:55:00.145Z,101512.53
2022-09-12T08:00:21.174Z,101503.75
2022-09-12T08:05:42.290Z,101502.13
2022-09-12T08:11:06.121Z,101505.03
2022-09-12T08:16:29.737Z,101507.53
2022-09-12T08:21:50.188Z,101515.63
2022-09-12T08:27:10.708Z,101519.00
2022-09-12T08:32:31.733Z,101505.38
2022-09-12T08:37:52.218Z,101515.50
2022-09-12T08:43:23.714Z,101510.56
2022-09-12T08:48:46.784Z,101506.50
2022-09-12T08:54:24.055Z,101505.47
2022-09-12T08:59:45.936Z,101501.03
2022-09-12T09:05:29.900Z,101490.84
2022-09-12T09:10:59.720Z,101496.19
2022-09-12T09:16:41.103Z,101488.81
2022-09-12T09:22:12.037Z,101495.06
2022-09-12T09:27:41.639Z,101480.03
2022-09-12T09:33:09.817Z,101471.50
2022-09-12T09:38:49.125Z,101466.59
2022-09-12T09:44:10.474Z,101467.19
2022-09-12T09:49:34.103Z,101449.88
2022-09-12T09:55:00.217Z,101461.91
2022-09-12T10:00:27.697Z,101462.69
2022-09-12T10:05:54.476Z,101467.22
2022-09-12T10:11:20.353Z,101476.72
2022-09-12T10:16:54.589Z,101464.94
2022-09-12T10:22:21.306Z,101461.97
2022-09-12T10:27:42.677Z,101467.31
2022-09-12T10:33:11.578Z,101451.31
2022-09-12T10:38:32.981Z,101426.34
2022-09-12T10:44:07.746Z,101434.78
2022-09-12T10:49:37.864Z,101435.47
2022-09-12T10:54:58.966Z,101425.97
2022-09-12T11:00:27.483Z,101428.63
2022-09-12T11:05:53.903Z,101425.75
2022-09-12T11:11:37.096Z,101426.84
2022-09-12T11:17:22.593Z,101425.88
2022-09-12T11:22:52.335Z,101422.53
2022-09-12T11:28:50.459Z,101421.16
2022-09-12T11:34:17.653Z,101422.63
2022-09-12T11:39:45.698Z,101413.63
2022-09-12T11:45:34.141Z,101414.78
2022-09-12T11:50:55.170Z,101423.97
2022-09-12T11:56:18.513Z,101409.75
2022-09-12T12:01:48.340Z,101414.59
2022-09-12T12:07:12.380Z,101402.38
2022-09-12T12:13:23.267Z,101402.66
2022-09-12T12:18:44.127Z,101401.72
2022-09-12T12:24:07.695Z,101389.19
2022-09-12T12:29:43.614Z,101390.38
2022-09-12T12:35:37.415Z,101384.78
2022-09-12T12:41:16.637Z,101387.38
2022-09-12T12:46:38.327Z,101378.53
2022-09-12T12:52:03.430Z,101385.94
2022-09-12T12:57:40.753Z,101364.78
2022-09-12T13:03:04.411Z,101358.28
2022-09-12T13:08:32.028Z,101361.28
2022-09-12T13:14:09.557Z,101349.41
2022-09-12T13:19:33.333Z,101343.53
2022-09-12T13:24:53.628Z,101339.47
2022-09-12T13:30:15.433Z,101329.06
2022-09-12T13:36:06.358Z,101332.44
2022-09-12T13:41:45.444Z,101317.91
2022-09-12T13:47:06.046Z,101313.78
2022-09-12T13:52:32.381Z,101292.25
2022-09-12T13:58:01.073Z,101284.69
2022-09-12T14:03:49.561Z,101273.25
2022-09-12T14:09:15.659Z,101282.69
2022-09-12T14:14:43.887Z,101273.53
2022-09-12T14:20:14.033Z,101273.91
2022-09-12T14:25:39.025Z,101256.31
2022-09-12T14:31:22.013Z,101259.81
2022-09-12T14:36:49.966Z,101256.22
2022-09-12T14:42:17.061Z,101260.69
2022-09-12T14:47:44.355Z,101241.56
2022-09-12T14:53:06.856Z,101242.25
2022-09-12T14:58:28.266Z,101226.72
2022-09-12T15:03:51.855Z,101229.63
2022-09-12T15:09:14.004Z,101221.72
2022-09-12T15:14:34.317Z,101234.16
2022-09-12T15:19:54.651Z,101219.34
2022-09-12T15:25:14.953Z,101214.56
2022-09-12T15:30:35.613Z,101208.22
2022-09-12T15:35:56.023Z,101207.94
2022-09-12T15:41:38.112Z,101201.69
2022-09-12T15:46:58.581Z,101190.25
2022-09-12T15:52:19.457Z,101183.63
2022-09-12T15:57:40.412Z,101167.19
2022-09-12T16:03:01.192Z,101172.53
2022-09-12T16:08:22.443Z,101165.72
2022-09-12T16:13:43.101Z,101151.84
2022-09-12T16:19:03.933Z,101137.22
2022-09-12T16:24:24.691Z,101134.69
2022-09-12T16:29:45.406Z,101132.31
2022-09-12T16:35:06.602Z,101120.88
2022-09-12T16:40:27.256Z,101115.72
2022-09-12T16:45:48.234Z,101110.72
2022-09-12T16:51:09.555Z,101112.06
2022-09-12T16:56:30.057Z,101093.66
2022-09-12T17:01:50.843Z,101097.25
2022-09-12T17:07:11.150Z,101081.13
2022-09-12T17:12:31.643Z,101061.25
2022-09-12T17:17:52.342Z,101056.16
2022-09-12T17:23:12.804Z,101042.69
2022-09-12T17:28:34.019Z,101043.53
2022-09-12T17:33:59.017Z,101029.94
2022-09-12T17:39:20.722Z,101019.53
2022-09-12T17:44:41.586Z,101010.97
2022-09-12T17:50:29.958Z,101011.16
2022-09-12T17:55:42.452Z,101003.34
2022-09-12T18:01:32.779Z,100989.66
2022-09-12T18:06:54.801Z,100986.16
2022-09-12T18:12:16.591Z,100974.94
2022-09-12T18:17:37.606Z,100979.13
2022-09-12T18:22:59.171Z,100965.31
2022-09-12T18:28:19.888Z,100964.41
2022-09-12T18:33:41.014Z,100967.00
2022-09-12T18:39:01.440Z,100966.91
2022-09-12T18:44:22.243Z,100960.88
2022-09-12T18:49:42.397Z,100940.78
2022-09-12T18:55:03.287Z,100940.84
2022-09-12T19:00:24.231Z,100939.94
2022-09-12T19:05:45.082Z,100938.19
2022-09-12T19:11:08.055Z,100936.34
2022-09-12T19:16:29.802Z,100921.44
2022-09-12T19:21:50.229Z,100928.09
2022-09-12T19:27:12.942Z,100912.50
2022-09-12T19:32:33.564Z,100903.03
2022-09-12T19:37:54.361Z,100900.66
2022-09-12T19:43:14.908Z,100892.03
2022-09-12T19:48:39.297Z,100876.56
2022-09-12T19:54:00.125Z,100865.44
2022-09-12T19:59:22.544Z,100856.06
2022-09-12T20:04:43.203Z,100858.03
2022-09-12T20:10:04.376Z,100837.22
2022-09-12T20:15:25.241Z,100829.19
2022-09-12T20:20:45.588Z,100818.13
2022-09-12T20:26:07.043Z,100803.34
2022-09-12T20:31:27.827Z,100798.19
2022-09-12T20:36:48.883Z,100795.59
2022-09-12T20:42:09.320Z,100789.03
2022-09-12T20:47:29.792Z,100778.59
2022-09-12T20:52:51.129Z,100767.25
2022-09-12T20:58:12.444Z,100784.09
2022-09-12T21:03:39.805Z,100771.78
2022-09-12T21:09:01.043Z,100751.41
2022-09-12T21:14:23.297Z,100753.13
2022-09-12T21:19:46.171Z,100746.13
2022-09-12T21:25:07.523Z,100735.75
2022-09-12T21:30:31.094Z,100748.81
2022-09-12T21:35:51.913Z,100746.34
2022-09-12T21:41:15.460Z,100751.91
2022-09-12T21:46:36.601Z,100734.38
2022-09-12T21:51:57.160Z,100737.00
2022-09-12T21:57:17.957Z,100727.84
2022-09-12T22:02:38.716Z,100690.88
2022-09-12T22:08:02.408Z,100670.88
2022-09-12T22:13:23.145Z,100656.19
2022-09-12T22:18:45.416Z,100655.28
2022-09-12T22:24:25.311Z,100649.94
2022-09-12T22:29:49.618Z,100651.53
2022-09-12T22:35:10.337Z,100669.38
2022-09-12T22:40:31.304Z,100645.03
2022-09-12T22:45:52.334Z,100661.50
2022-09-12T22:51:13.525Z,100644.13
2022-09-12T22:56:34.313Z,100640.41
2022-09-12T23:01:54.828Z,100607.47
2022-09-12T23:07:15.777Z,100616.22
2022-09-12T23:12:36.908Z,100599.84
2022-09-12T23:17:58.843Z,100590.56
2022-09-12T23:23:19.551Z,100602.63
2022-09-12T23:28:42.201Z,100592.16
2022-09-12T23:34:05.762Z,100578.31
2022-09-12T23:39:26.391Z,100568.09
2022-09-12T23:44:47.473Z,100565.16
2022-09-12T23:50:08.154Z,100561.88
2022-09-12T23:55:28.639Z,100556.25
